Time;durP1;ratioP1;P1;durP2;ratioP2;P2;SDS_P1;SDS_P2;PMS_P1;PMS_P2;Temp;Humidity;BMP_temperature;BMP_pressure;BME280_temperature;BME280_humidity;BME280_pressure;Samples;Min_cycle;Max_cycle;Signal;HPM_P1;HPM_P2
2022/04/30 00:00:02;;;;;;;5.13;1.65;;;19.90;51.20;;;;;;4992302;28;20069;-55
2022/04/30 00:02:28;;;;;;;3.72;1.40;;;19.90;51.20;;;;;;4993311;28;20089;-56
2022/04/30 00:04:53;;;;;;;4.43;1.40;;;19.90;51.20;;;;;;4992710;28;20078;-55
2022/04/30 00:07:19;;;;;;;3.60;1.30;;;19.90;51.20;;;;;;4992436;28;20551;-55
2022/04/30 00:09:45;;;;;;;3.83;1.20;;;19.90;51.10;;;;;;4992893;28;20057;-56
2022/04/30 00:12:11;;;;;;;4.03;1.40;;;19.90;51.20;;;;;;4992091;28;20050;-56
2022/04/30 00:14:37;;;;;;;2.60;1.35;;;19.90;51.10;;;;;;4992795;28;20390;-56
2022/04/30 00:17:03;;;;;;;3.85;1.40;;;19.90;51.10;;;;;;4992848;28;20050;-56
2022/04/30 00:19:29;;;;;;;3.50;1.33;;;19.90;51.10;;;;;;4992485;28;20093;-56
2022/04/30 00:21:55;;;;;;;4.15;1.45;;;19.90;51.10;;;;;;4992149;28;20441;-56
2022/04/30 00:24:20;;;;;;;3.70;1.30;;;19.80;51.10;;;;;;4992748;28;20125;-56
2022/04/30 00:26:46;;;;;;;2.85;0.90;;;19.90;51.10;;;;;;4991791;28;20046;-55
2022/04/30 00:29:11;;;;;;;2.88;1.10;;;19.90;51.10;;;;;;4992670;28;20053;-55
2022/04/30 00:31:40;;;;;;;2.95;1.33;;;19.90;51.20;;;;;;4992957;28;20397;-55
2022/04/30 00:34:06;;;;;;;3.08;1.40;;;19.80;51.10;;;;;;4991737;28;20054;-55
2022/04/30 00:36:31;;;;;;;2.85;1.30;;;19.80;51.00;;;;;;4992463;28;20445;-55
2022/04/30 00:38:57;;;;;;;2.63;1.25;;;19.80;51.00;;;;;;4992245;28;20125;-55
2022/04/30 00:41:23;;;;;;;2.70;1.38;;;19.80;51.00;;;;;;4991949;28;20101;-55
2022/04/30 00:43:50;;;;;;;4.22;1.35;;;19.80;51.00;;;;;;4994810;28;20149;-55
2022/04/30 00:46:17;;;;;;;2.88;1.23;;;19.80;51.00;;;;;;4996581;28;20046;-55
2022/04/30 00:48:42;;;;;;;3.22;1.55;;;19.80;51.00;;;;;;4995637;28;20081;-55
2022/04/30 00:51:12;;;;;;;3.40;1.45;;;19.80;50.90;;;;;;4995694;28;20046;-55
2022/04/30 00:53:41;;;;;;;2.70;1.17;;;19.80;50.90;;;;;;4996131;28;20050;-55
2022/04/30 00:56:09;;;;;;;2.75;1.65;;;19.80;51.00;;;;;;4994234;28;20042;-56
2022/04/30 00:58:34;;;;;;;2.80;1.20;;;19.80;50.90;;;;;;4996288;28;20054;-56
2022/04/30 01:01:00;;;;;;;4.25;1.38;;;19.70;50.90;;;;;;4994649;28;20053;-56
2022/04/30 01:03:26;;;;;;;4.20;1.58;;;19.70;50.80;;;;;;4995024;28;20840;-56
2022/04/30 01:05:52;;;;;;;4.32;1.33;;;19.70;50.80;;;;;;4995729;28;20125;-55
2022/04/30 01:08:19;;;;;;;3.63;1.40;;;19.70;50.80;;;;;;4994643;28;20042;-55
2022/04/30 01:10:44;;;;;;;4.20;1.42;;;19.70;50.80;;;;;;4993812;28;20068;-55
2022/04/30 01:13:13;;;;;;;3.63;1.67;;;19.70;50.80;;;;;;4994629;28;20401;-55
2022/04/30 01:15:39;;;;;;;2.17;1.00;;;19.70;50.80;;;;;;4995419;28;20042;-55
2022/04/30 01:18:06;;;;;;;2.53;1.50;;;19.70;50.90;;;;;;4995745;28;20065;-55
2022/04/30 01:20:32;;;;;;;2.10;1.00;;;19.80;51.00;;;;;;4994610;28;20092;-55
2022/04/30 01:22:58;;;;;;;3.05;1.20;;;19.70;50.90;;;;;;4994939;28;20439;-56
2022/04/30 01:25:23;;;;;;;3.67;1.52;;;19.70;50.90;;;;;;4993939;28;20046;-56
2022/04/30 01:27:49;;;;;;;3.78;1.50;;;19.70;50.90;;;;;;4994249;28;20042;-55
2022/04/30 01:30:16;;;;;;;2.65;1.17;;;19.70;50.90;;;;;;4994024;28;20381;-55
2022/04/30 01:38:15;;;;;;;3.17;1.50;;;19.70;50.90;;;;;;4994999;28;20046;-55
2022/04/30 01:40:41;;;;;;;3.30;1.42;;;19.70;50.90;;;;;;4994933;28;20055;-55
2022/04/30 01:43:07;;;;;;;3.08;1.15;;;19.70;50.90;;;;;;4995292;28;20061;-55
2022/04/30 01:45:33;;;;;;;2.75;1.23;;;19.80;50.90;;;;;;4994694;28;20096;-55
2022/04/30 01:47:59;;;;;;;3.83;1.50;;;19.80;50.90;;;;;;4995030;28;20125;-55
2022/04/30 01:50:25;;;;;;;3.33;1.60;;;19.80;51.00;;;;;;4993957;28;20046;-55
2022/04/30 01:52:51;;;;;;;3.38;1.10;;;19.80;51.10;;;;;;4994048;28;20496;-55
2022/04/30 01:55:16;;;;;;;3.45;1.33;;;19.80;51.00;;;;;;4994143;28;20038;-55
2022/04/30 01:57:42;;;;;;;2.80;1.50;;;19.80;51.10;;;;;;4994536;28;20129;-55
2022/04/30 02:00:20;;;;;;;2.40;1.30;;;19.80;51.00;;;;;;4994893;28;20061;-55
2022/04/30 02:02:46;;;;;;;2.67;1.40;;;19.80;51.10;;;;;;4993497;28;20062;-56
2022/04/30 02:05:13;;;;;;;2.05;1.33;;;19.90;51.10;;;;;;4993743;28;20057;-56
2022/04/30 02:08:06;;;;;;;2.70;1.30;;;19.90;51.10;;;;;;4993358;28;20047;-55
2022/04/30 02:10:36;;;;;;;2.33;1.10;;;19.90;51.10;;;;;;4993485;28;20058;-56
2022/04/30 02:13:03;;;;;;;2.60;1.00;;;19.90;51.10;;;;;;4992898;28;20129;-56
2022/04/30 02:15:28;;;;;;;2.10;1.08;;;19.80;51.10;;;;;;4993418;28;20039;-55
2022/04/30 02:17:54;;;;;;;3.47;1.30;;;19.90;51.20;;;;;;4993160;28;20553;-55
2022/04/30 02:20:22;;;;;;;3.28;1.10;;;19.90;51.20;;;;;;4992661;28;20051;-55
2022/04/30 02:22:48;;;;;;;1.92;1.00;;;19.90;51.10;;;;;;4993220;28;20108;-55
2022/04/30 02:25:15;;;;;;;3.70;1.30;;;19.90;51.10;;;;;;4994477;28;20057;-55
2022/04/30 02:27:42;;;;;;;2.50;1.38;;;19.90;51.10;;;;;;4993111;28;20042;-55
2022/04/30 02:30:17;;;;;;;2.73;1.60;;;19.90;51.10;;;;;;4994429;28;20065;-55
2022/04/30 02:32:45;;;;;;;2.22;1.30;;;19.90;51.20;;;;;;4993805;28;20430;-55
2022/04/30 02:35:12;;;;;;;3.67;1.52;;;19.90;51.20;;;;;;4994093;28;20081;-55
2022/04/30 02:37:37;;;;;;;3.95;1.38;;;20.00;51.20;;;;;;4993855;28;20556;-55
2022/04/30 02:40:04;;;;;;;3.28;1.30;;;20.00;51.20;;;;;;4993025;28;20046;-55
2022/04/30 02:42:29;;;;;;;1.85;1.10;;;20.00;51.10;;;;;;4993660;28;20410;-55
2022/04/30 02:44:55;;;;;;;2.30;1.35;;;20.00;51.10;;;;;;4994040;28;20503;-55
2022/04/30 02:47:20;;;;;;;2.65;1.30;;;20.00;51.20;;;;;;4993712;28;20133;-55
2022/04/30 02:49:46;;;;;;;2.63;1.17;;;20.00;51.10;;;;;;4993538;28;20201;-55
2022/04/30 02:52:11;;;;;;;2.30;1.23;;;20.00;51.10;;;;;;4993797;28;20406;-55
2022/04/30 02:54:37;;;;;;;2.47;1.35;;;20.00;51.10;;;;;;4993606;28;20068;-56
2022/04/30 02:57:03;;;;;;;3.25;1.27;;;20.00;51.10;;;;;;4993151;28;20078;-56
2022/04/30 03:02:13;;;;;;;2.47;1.50;;;20.10;51.20;;;;;;4993505;28;20046;-55
2022/04/30 03:04:38;;;;;;;2.17;1.50;;;20.10;51.20;;;;;;4992801;28;20042;-55
2022/04/30 03:07:04;;;;;;;2.10;1.40;;;20.10;51.20;;;;;;4993600;28;20054;-55
2022/04/30 03:09:30;;;;;;;1.60;1.13;;;20.10;51.20;;;;;;4992594;28;20069;-56
2022/04/30 03:11:57;;;;;;;2.63;1.13;;;20.10;51.10;;;;;;4993196;28;20117;-56
2022/04/30 03:14:23;;;;;;;1.73;1.10;;;20.10;51.10;;;;;;4993686;28;20050;-55
2022/04/30 03:22:17;;;;;;;2.72;1.30;;;20.10;51.10;;;;;;4993027;28;20054;-55
2022/04/30 03:24:43;;;;;;;2.33;1.30;;;20.20;51.10;;;;;;4993076;28;20038;-55
2022/04/30 03:27:08;;;;;;;1.70;1.17;;;20.20;51.10;;;;;;4993428;28;20046;-55
2022/04/30 03:29:34;;;;;;;2.15;1.27;;;20.20;51.00;;;;;;4992776;28;20089;-55
2022/04/30 03:31:59;;;;;;;2.58;1.23;;;20.10;51.00;;;;;;4992849;28;20051;-55
2022/04/30 03:34:28;;;;;;;2.05;1.25;;;20.20;51.00;;;;;;4992830;28;20069;-55
2022/04/30 03:36:53;;;;;;;2.78;1.35;;;20.20;51.00;;;;;;4992682;28;20046;-55
2022/04/30 03:39:19;;;;;;;2.78;1.58;;;20.20;51.00;;;;;;4993205;28;20049;-55
2022/04/30 03:41:44;;;;;;;2.47;1.20;;;20.20;51.00;;;;;;4992944;28;20386;-55
2022/04/30 03:44:10;;;;;;;2.38;1.20;;;20.20;51.00;;;;;;4992746;28;20050;-55
2022/04/30 03:46:35;;;;;;;2.63;1.58;;;20.20;51.00;;;;;;4993103;28;20052;-55
2022/04/30 03:49:03;;;;;;;2.28;1.20;;;20.20;51.00;;;;;;4992710;28;20046;-55
2022/04/30 03:51:28;;;;;;;2.50;1.27;;;20.30;51.00;;;;;;4992656;28;20487;-55
2022/04/30 03:53:54;;;;;;;1.58;1.10;;;20.20;50.90;;;;;;4992522;28;20057;-55
2022/04/30 03:56:19;;;;;;;2.92;1.35;;;20.20;51.00;;;;;;4992747;28;20047;-55
2022/04/30 03:58:47;;;;;;;2.17;1.33;;;20.30;51.00;;;;;;4992054;28;20133;-55
2022/04/30 04:01:13;;;;;;;2.22;1.20;;;20.30;51.00;;;;;;4993160;28;20065;-55
2022/04/30 04:03:39;;;;;;;2.38;1.20;;;20.30;50.90;;;;;;4992435;28;20498;-55
2022/04/30 04:06:06;;;;;;;1.83;1.20;;;20.30;50.90;;;;;;4990531;28;20039;-55
2022/04/30 04:08:31;;;;;;;1.88;1.20;;;20.30;50.90;;;;;;4992885;28;20478;-55
2022/04/30 04:10:57;;;;;;;2.00;1.25;;;20.30;50.90;;;;;;4992350;28;20046;-55
2022/04/30 04:18:51;;;;;;;2.10;1.27;;;20.30;50.90;;;;;;4995488;28;20047;-56
2022/04/30 04:21:18;;;;;;;2.05;1.17;;;20.30;50.80;;;;;;4996663;28;20053;-55
2022/04/30 04:26:29;;;;;;;2.20;1.17;;;20.40;50.90;;;;;;4995884;28;20447;-55
2022/04/30 04:28:55;;;;;;;2.03;1.52;;;20.30;50.80;;;;;;4996116;28;20570;-56
2022/04/30 04:31:22;;;;;;;2.67;1.40;;;20.40;50.90;;;;;;4996675;28;20092;-55
2022/04/30 04:33:48;;;;;;;1.92;1.50;;;20.40;50.80;;;;;;4995238;28;20062;-55
2022/04/30 04:36:14;;;;;;;2.13;1.30;;;20.40;50.80;;;;;;4996581;28;20057;-55
2022/04/30 04:38:39;;;;;;;3.33;1.30;;;20.40;50.90;;;;;;4996292;28;20046;-55
2022/04/30 04:41:05;;;;;;;2.47;1.20;;;20.40;50.80;;;;;;4995297;28;20060;-55
2022/04/30 04:43:30;;;;;;;2.25;1.42;;;20.40;50.80;;;;;;4995883;28;20084;-55
2022/04/30 04:45:56;;;;;;;2.25;1.20;;;20.40;50.80;;;;;;4996251;28;20079;-55
2022/04/30 04:48:21;;;;;;;2.42;1.50;;;20.40;50.80;;;;;;4995816;28;20100;-55
2022/04/30 04:50:47;;;;;;;2.78;1.42;;;20.40;50.80;;;;;;4994853;28;20062;-56
2022/04/30 04:53:13;;;;;;;2.45;1.25;;;20.40;50.80;;;;;;4996085;28;20042;-55
2022/04/30 04:55:38;;;;;;;2.35;1.30;;;20.50;50.80;;;;;;4993649;28;20490;-55
2022/04/30 04:58:04;;;;;;;3.15;1.60;;;20.50;50.80;;;;;;4995022;28;20050;-55
2022/04/30 05:00:30;;;;;;;2.70;1.30;;;20.50;50.70;;;;;;4995455;28;20458;-55
2022/04/30 05:02:55;;;;;;;2.53;1.58;;;20.60;50.70;;;;;;4995726;28;20116;-55
2022/04/30 05:05:21;;;;;;;3.53;1.80;;;20.60;50.50;;;;;;4995988;28;20046;-55
2022/04/30 05:07:46;;;;;;;2.65;1.80;;;20.70;50.60;;;;;;4994895;28;20837;-55
2022/04/30 05:10:12;;;;;;;2.17;1.38;;;20.70;50.60;;;;;;4995775;28;20043;-56
2022/04/30 05:12:37;;;;;;;2.55;1.42;;;20.70;50.50;;;;;;4995771;28;20140;-55
2022/04/30 05:15:03;;;;;;;2.78;1.42;;;20.70;50.40;;;;;;4995153;28;20054;-56
2022/04/30 05:17:29;;;;;;;2.35;1.50;;;20.70;50.40;;;;;;4995673;28;20045;-56
2022/04/30 05:19:54;;;;;;;2.92;1.73;;;20.70;50.50;;;;;;4995761;28;20046;-55
2022/04/30 05:22:20;;;;;;;2.53;1.50;;;20.70;50.50;;;;;;4995327;28;20046;-55
2022/04/30 05:24:45;;;;;;;3.20;1.52;;;20.70;50.50;;;;;;4995308;28;20038;-55
2022/04/30 05:27:11;;;;;;;2.45;1.45;;;20.80;50.60;;;;;;4995439;28;20046;-55
2022/04/30 05:29:36;;;;;;;3.15;1.83;;;20.80;50.60;;;;;;4995075;28;20042;-55
2022/04/30 05:32:03;;;;;;;2.15;1.30;;;20.80;50.60;;;;;;4994990;28;20050;-56
2022/04/30 05:34:28;;;;;;;1.92;1.40;;;20.70;50.60;;;;;;4995134;28;20070;-56
2022/04/30 05:36:54;;;;;;;3.75;1.55;;;20.80;50.70;;;;;;4994442;28;20053;-56
2022/04/30 05:39:19;;;;;;;2.83;1.58;;;20.80;50.80;;;;;;4995470;28;20050;-55
2022/04/30 05:41:46;;;;;;;3.03;1.70;;;20.80;50.80;;;;;;4994670;28;20046;-55
2022/04/30 05:44:12;;;;;;;2.55;1.40;;;20.70;50.80;;;;;;4994367;28;20518;-55
2022/04/30 05:46:38;;;;;;;1.73;1.42;;;20.70;50.80;;;;;;4995368;28;20078;-55
2022/04/30 05:49:03;;;;;;;2.75;1.70;;;20.80;50.90;;;;;;4995049;28;20129;-55
2022/04/30 05:51:29;;;;;;;3.10;1.33;;;20.80;51.60;;;;;;4994364;28;20116;-55
2022/04/30 05:53:54;;;;;;;2.38;1.33;;;20.80;50.90;;;;;;4994517;28;20474;-55
2022/04/30 05:56:20;;;;;;;2.58;1.40;;;20.80;50.90;;;;;;4995104;28;20065;-55
2022/04/30 05:58:46;;;;;;;2.53;1.40;;;20.80;50.90;;;;;;4993573;28;20053;-55
2022/04/30 06:01:12;;;;;;;2.47;1.50;;;20.80;50.90;;;;;;4995180;28;20423;-56
2022/04/30 06:03:39;;;;;;;3.08;1.90;;;20.80;51.00;;;;;;4994904;28;20053;-55
2022/04/30 06:06:05;;;;;;;2.03;1.40;;;20.80;51.00;;;;;;4993783;28;20049;-55
2022/04/30 06:08:31;;;;;;;1.67;1.30;;;20.80;51.00;;;;;;4994867;28;20061;-56
2022/04/30 06:10:56;;;;;;;2.65;1.20;;;20.80;51.00;;;;;;4993916;28;20470;-56
2022/04/30 06:13:22;;;;;;;3.13;1.60;;;20.80;51.10;;;;;;4994550;28;20108;-55
2022/04/30 06:15:48;;;;;;;2.78;1.48;;;20.80;51.10;;;;;;4994336;28;20502;-55
2022/04/30 06:18:15;;;;;;;2.80;1.60;;;20.80;51.10;;;;;;4993937;28;20062;-55
2022/04/30 06:20:41;;;;;;;2.07;1.43;;;20.80;51.10;;;;;;4993984;28;20137;-55
2022/04/30 06:23:06;;;;;;;3.13;1.45;;;20.80;51.10;;;;;;4994754;28;20402;-55
2022/04/30 06:25:32;;;;;;;2.90;1.50;;;20.80;51.10;;;;;;4993773;28;20046;-56
2022/04/30 06:27:58;;;;;;;3.35;1.48;;;20.80;51.10;;;;;;4993897;28;20129;-55
2022/04/30 06:30:24;;;;;;;2.33;1.60;;;20.90;51.20;;;;;;4994548;28;20390;-55
2022/04/30 06:32:49;;;;;;;3.63;1.50;;;20.90;51.10;;;;;;4993458;28;20108;-55
2022/04/30 06:35:14;;;;;;;1.77;1.30;;;20.90;50.90;;;;;;4994121;28;20105;-55
2022/04/30 06:37:40;;;;;;;2.50;1.40;;;20.90;50.80;;;;;;4994043;28;20572;-55
2022/04/30 06:40:07;;;;;;;4.72;1.70;;;20.90;50.90;;;;;;4992595;28;20042;-55
2022/04/30 06:42:41;;;;;;;3.42;1.70;;;20.90;50.90;;;;;;4994071;28;20494;-55
2022/04/30 06:45:08;;;;;;;2.35;1.75;;;20.90;51.10;;;;;;4993717;28;20046;-55
2022/04/30 06:47:34;;;;;;;1.85;1.30;;;20.90;51.10;;;;;;4993267;28;20053;-56
2022/04/30 06:50:00;;;;;;;2.65;1.42;;;21.00;51.20;;;;;;4993632;28;20054;-56
2022/04/30 06:52:28;;;;;;;2.38;1.50;;;21.00;51.20;;;;;;4993703;28;20086;-57
2022/04/30 06:57:43;;;;;;;2.30;1.40;;;21.00;51.40;;;;;;4992879;28;20498;-56
2022/04/30 07:01:25;;;;;;;2.33;1.60;;;21.10;51.60;;;;;;4993258;28;20058;-56
2022/04/30 07:03:11;;;;;;;2.28;1.50;;;21.10;51.70;;;;;;4993509;28;20144;-56
2022/04/30 07:05:36;;;;;;;2.45;1.50;;;21.10;51.80;;;;;;4993898;28;20054;-56
2022/04/30 07:08:02;;;;;;;2.88;1.27;;;21.10;51.90;;;;;;4992989;28;20038;-56
2022/04/30 07:10:28;;;;;;;4.07;1.52;;;21.10;51.90;;;;;;4993836;28;20053;-56
2022/04/30 07:12:53;;;;;;;2.95;1.50;;;21.20;52.00;;;;;;4993056;28;20482;-55
2022/04/30 07:15:19;;;;;;;2.55;1.40;;;21.20;52.10;;;;;;4992803;28;20100;-56
2022/04/30 07:17:46;;;;;;;3.83;1.60;;;21.20;52.20;;;;;;4986949;28;20066;-55
2022/04/30 07:20:12;;;;;;;4.72;1.50;;;21.30;52.20;;;;;;4983265;28;20159;-56
2022/04/30 07:22:38;;;;;;;2.67;1.45;;;21.20;52.30;;;;;;4982239;28;20038;-56
2022/04/30 07:25:05;;;;;;;3.50;1.52;;;21.30;52.40;;;;;;4973868;28;20051;-56
2022/04/30 07:27:30;;;;;;;3.25;1.70;;;21.30;52.40;;;;;;4973886;28;20043;-56
2022/04/30 07:29:56;;;;;;;4.97;1.38;;;21.30;52.50;;;;;;4972582;28;20047;-55
2022/04/30 07:32:21;;;;;;;2.20;1.27;;;21.40;52.60;;;;;;4974158;28;20576;-56
2022/04/30 07:34:47;;;;;;;4.45;1.55;;;21.30;52.70;;;;;;4973366;28;20051;-56
2022/04/30 07:37:13;;;;;;;1.90;1.30;;;21.40;52.70;;;;;;4973142;28;20379;-55
2022/04/30 07:39:38;;;;;;;3.00;1.50;;;21.40;52.80;;;;;;4973803;28;20039;-56
2022/04/30 07:42:04;;;;;;;3.00;1.67;;;21.50;52.90;;;;;;4991354;28;20367;-56
2022/04/30 07:44:30;;;;;;;3.33;1.35;;;21.40;52.90;;;;;;4992239;28;20077;-56
2022/04/30 07:46:56;;;;;;;2.55;1.50;;;21.50;53.00;;;;;;4993028;28;20043;-56
2022/04/30 07:49:22;;;;;;;3.60;1.60;;;21.40;53.00;;;;;;4992652;28;20054;-56
2022/04/30 07:51:55;;;;;;;3.72;1.50;;;21.50;53.00;;;;;;4992145;28;20053;-56
2022/04/30 07:54:21;;;;;;;2.67;1.65;;;21.50;53.00;;;;;;4993041;28;20050;-56
2022/04/30 07:56:50;;;;;;;4.30;1.58;;;21.50;53.00;;;;;;4991900;28;20073;-56
2022/04/30 07:59:16;;;;;;;2.13;1.38;;;21.50;53.10;;;;;;4992862;28;20046;-56
2022/04/30 08:01:41;;;;;;;2.90;1.40;;;21.50;53.10;;;;;;4992740;28;20394;-56
2022/04/30 08:04:07;;;;;;;2.90;1.50;;;21.50;53.20;;;;;;4992009;28;20132;-56
2022/04/30 08:06:32;;;;;;;2.42;1.42;;;21.50;53.30;;;;;;4992894;28;20057;-56
2022/04/30 08:08:58;;;;;;;1.70;1.10;;;21.50;53.30;;;;;;4992313;28;20065;-56
2022/04/30 08:11:23;;;;;;;4.30;1.52;;;21.60;54.10;;;;;;4992155;28;20043;-56
2022/04/30 08:13:49;;;;;;;2.58;1.10;;;21.60;53.40;;;;;;4992537;28;20050;-56
2022/04/30 08:16:14;;;;;;;3.22;1.45;;;21.60;53.30;;;;;;4993169;28;20082;-56
2022/04/30 08:18:40;;;;;;;2.17;1.55;;;21.50;53.30;;;;;;4991846;28;20487;-56
2022/04/30 08:21:06;;;;;;;4.45;1.50;;;21.50;53.30;;;;;;4992408;28;20151;-56
2022/04/30 08:23:33;;;;;;;1.55;1.20;;;21.60;53.40;;;;;;4992960;28;20517;-56
2022/04/30 08:25:59;;;;;;;2.53;1.30;;;21.50;53.40;;;;;;4989749;28;20050;-55
2022/04/30 08:28:24;;;;;;;2.35;1.25;;;21.50;54.00;;;;;;4982674;28;20046;-55
2022/04/30 08:30:50;;;;;;;4.07;1.40;;;21.60;53.40;;;;;;4983099;28;20035;-56
2022/04/30 08:33:15;;;;;;;2.10;1.30;;;21.50;53.40;;;;;;4980378;28;20058;-55
2022/04/30 08:35:41;;;;;;;3.00;1.33;;;21.60;53.40;;;;;;4973125;28;20094;-56
2022/04/30 08:38:06;;;;;;;1.50;1.05;;;21.50;53.40;;;;;;4973529;28;20061;-55
2022/04/30 08:40:34;;;;;;;1.80;1.23;;;21.60;53.40;;;;;;4972417;28;20061;-55
2022/04/30 08:43:07;;;;;;;3.03;1.30;;;21.60;53.40;;;;;;4971679;28;20150;-56
2022/04/30 08:45:33;;;;;;;5.30;1.38;;;21.60;53.40;;;;;;4971723;28;20046;-56
2022/04/30 08:47:58;;;;;;;2.30;1.20;;;21.60;53.50;;;;;;4971513;28;20109;-56
2022/04/30 08:50:24;;;;;;;1.85;0.90;;;21.60;53.40;;;;;;4972134;28;20078;-56
2022/04/30 08:52:51;;;;;;;2.10;1.20;;;21.60;53.30;;;;;;4972420;28;20042;-56
2022/04/30 08:55:16;;;;;;;1.65;1.27;;;21.50;53.20;;;;;;4972907;28;20114;-56
2022/04/30 08:57:42;;;;;;;2.53;1.17;;;21.60;53.30;;;;;;4972867;28;20486;-56
2022/04/30 09:00:08;;;;;;;1.77;1.00;;;21.50;53.20;;;;;;4972814;28;20078;-56
2022/04/30 09:02:34;;;;;;;2.35;1.20;;;21.50;53.10;;;;;;4973070;28;20038;-56
2022/04/30 09:04:59;;;;;;;1.80;1.20;;;21.50;53.20;;;;;;4975788;28;20129;-56
2022/04/30 09:07:25;;;;;;;2.60;1.20;;;21.50;53.10;;;;;;4975857;28;20067;-56
2022/04/30 09:09:59;;;;;;;2.00;1.30;;;21.40;53.10;;;;;;4975779;28;20406;-56
2022/04/30 09:12:26;;;;;;;4.15;1.50;;;21.40;53.10;;;;;;4976290;28;20097;-56
2022/04/30 09:14:52;;;;;;;4.72;1.50;;;21.50;53.20;;;;;;4975490;28;20058;-57
2022/04/30 09:17:18;;;;;;;4.35;1.80;;;21.40;53.20;;;;;;4976194;28;20093;-56
2022/04/30 09:19:59;;;;;;;4.22;2.30;;;21.40;53.20;;;;;;4976093;28;20070;-56
2022/04/30 09:22:29;;;;;;;3.65;2.00;;;21.40;53.20;;;;;;4975331;28;20035;-55
2022/04/30 09:24:54;;;;;;;5.28;2.05;;;21.40;53.30;;;;;;4975836;28;20047;-55
2022/04/30 09:27:20;;;;;;;4.65;2.10;;;21.50;53.30;;;;;;4975960;28;20451;-56
2022/04/30 09:29:45;;;;;;;5.00;2.08;;;21.50;53.40;;;;;;4982604;28;20045;-55
2022/04/30 09:32:22;;;;;;;4.57;2.05;;;21.40;53.40;;;;;;4986157;28;20035;-56
2022/04/30 09:37:41;;;;;;;4.40;1.92;;;21.40;53.40;;;;;;4994176;28;20133;-56
2022/04/30 09:40:27;;;;;;;7.63;2.05;;;21.50;53.50;;;;;;4995249;28;20039;-56
2022/04/30 09:42:52;;;;;;;9.00;1.92;;;21.40;53.40;;;;;;4994227;28;20086;-56
2022/04/30 09:45:29;;;;;;;3.88;1.90;;;21.40;53.60;;;;;;4995330;28;20073;-56
2022/04/30 09:47:55;;;;;;;4.75;1.90;;;21.40;53.50;;;;;;4994890;28;20478;-56
2022/04/30 09:55:54;;;;;;;4.43;2.03;;;21.40;53.50;;;;;;4983649;28;20047;-56
2022/04/30 09:58:24;;;;;;;5.90;1.83;;;21.50;53.60;;;;;;4991886;28;20042;-56
2022/04/30 10:00:55;;;;;;;4.63;1.73;;;21.50;53.60;;;;;;4994761;28;20042;-56
2022/04/30 10:03:26;;;;;;;3.33;1.90;;;21.40;53.60;;;;;;4994507;28;20047;-56
2022/04/30 10:06:03;;;;;;;7.25;2.28;;;21.50;53.60;;;;;;4993414;28;20045;-56
2022/04/30 10:08:36;;;;;;;5.97;2.10;;;21.50;53.60;;;;;;4993851;28;20050;-56
2022/04/30 10:11:32;;;;;;;3.90;2.10;;;21.50;53.70;;;;;;4993573;28;20049;-56
2022/04/30 10:14:23;;;;;;;3.85;2.05;;;21.50;53.60;;;;;;4994545;28;20054;-56
2022/04/30 10:17:12;;;;;;;6.15;2.08;;;21.50;53.70;;;;;;4993949;28;20108;-56
2022/04/30 10:19:34;;;;;;;7.13;1.90;;;21.50;53.70;;;;;;4979684;28;20051;-55
2022/04/30 10:22:17;;;;;;;3.80;2.03;;;21.60;53.80;;;;;;4994320;28;20129;-56
2022/04/30 10:24:49;;;;;;;3.70;1.77;;;21.60;53.80;;;;;;4993379;28;20402;-56
2022/04/30 10:27:16;;;;;;;3.92;1.80;;;21.60;53.80;;;;;;4994115;28;20054;-56
2022/04/30 10:29:58;;;;;;;5.95;2.03;;;21.60;53.70;;;;;;4993087;28;20061;-56
2022/04/30 10:32:30;;;;;;;3.83;1.77;;;21.60;53.70;;;;;;4993674;28;20386;-56
2022/04/30 10:34:56;;;;;;;4.80;2.10;;;21.60;53.70;;;;;;4994231;28;20100;-56
2022/04/30 10:37:28;;;;;;;3.17;1.73;;;21.60;53.70;;;;;;4994160;28;20383;-56
2022/04/30 10:40:00;;;;;;;5.32;2.17;;;21.70;53.70;;;;;;4986794;28;20148;-57
2022/04/30 10:42:30;;;;;;;4.93;1.92;;;21.60;53.70;;;;;;4985015;28;20042;-55
2022/04/30 10:44:55;;;;;;;4.20;1.90;;;21.60;53.70;;;;;;4993751;28;20046;-55
2022/04/30 10:47:21;;;;;;;5.95;1.60;;;21.60;53.70;;;;;;4993388;28;20065;-55
2022/04/30 10:49:47;;;;;;;7.47;2.10;;;21.70;53.70;;;;;;4992464;28;20042;-55
2022/04/30 10:52:12;;;;;;;4.95;1.58;;;21.60;53.60;;;;;;4993582;28;20045;-55
2022/04/30 10:54:38;;;;;;;5.93;1.70;;;21.60;53.60;;;;;;4975894;28;20073;-55
2022/04/30 10:57:04;;;;;;;3.55;1.85;;;21.60;54.30;;;;;;4992861;28;20046;-55
2022/04/30 10:59:30;;;;;;;3.60;1.77;;;21.60;53.70;;;;;;4993729;28;20052;-55
2022/04/30 11:01:56;;;;;;;3.85;1.67;;;21.60;53.70;;;;;;4993546;28;20046;-55
2022/04/30 11:04:21;;;;;;;3.80;1.80;;;21.60;53.70;;;;;;4993785;28;20446;-55
2022/04/30 11:06:50;;;;;;;5.72;1.95;;;21.60;53.70;;;;;;4992796;28;20466;-56
2022/04/30 11:09:15;;;;;;;4.78;1.65;;;21.60;53.70;;;;;;4993544;28;20514;-55
2022/04/30 11:11:45;;;;;;;5.03;1.90;;;21.60;53.70;;;;;;4993381;28;20467;-55
2022/04/30 11:14:11;;;;;;;4.30;2.10;;;21.60;53.70;;;;;;4992998;28;20082;-54
2022/04/30 11:16:45;;;;;;;5.20;1.90;;;21.60;53.70;;;;;;4991382;28;20109;-55
2022/04/30 11:19:14;;;;;;;3.95;1.60;;;21.50;53.70;;;;;;4992868;28;20456;-55
2022/04/30 11:21:42;;;;;;;4.90;1.88;;;21.50;53.70;;;;;;4992392;28;20046;-55
2022/04/30 11:24:08;;;;;;;5.97;1.75;;;21.50;53.60;;;;;;4993326;28;20049;-55
2022/04/30 11:26:37;;;;;;;4.68;2.10;;;21.50;53.60;;;;;;4985155;28;20042;-56
2022/04/30 11:29:10;;;;;;;2.97;1.75;;;21.50;53.60;;;;;;4983336;28;20084;-54
2022/04/30 11:31:36;;;;;;;5.60;2.20;;;21.50;53.40;;;;;;4984075;28;20053;-55
2022/04/30 11:34:12;;;;;;;4.70;2.00;;;21.50;53.40;;;;;;4974592;28;20059;-55
2022/04/30 11:36:41;;;;;;;5.35;1.80;;;21.50;53.50;;;;;;4973534;28;20126;-55
2022/04/30 11:39:07;;;;;;;3.58;1.80;;;21.50;53.60;;;;;;4973684;28;20462;-55
2022/04/30 11:41:38;;;;;;;5.82;1.50;;;21.50;53.70;;;;;;4971750;28;20503;-55
2022/04/30 11:44:04;;;;;;;3.22;1.55;;;21.50;53.70;;;;;;4973832;28;20065;-55
2022/04/30 11:46:29;;;;;;;3.10;1.30;;;21.50;53.80;;;;;;4973746;28;20039;-55
2022/04/30 11:48:55;;;;;;;3.63;1.70;;;21.50;53.90;;;;;;4972793;28;20057;-55
2022/04/30 11:51:21;;;;;;;5.10;1.80;;;21.50;53.90;;;;;;4972394;28;20047;-55
2022/04/30 11:53:46;;;;;;;6.10;1.90;;;21.50;53.90;;;;;;4973274;28;20486;-55
2022/04/30 11:56:12;;;;;;;3.90;2.13;;;21.50;54.00;;;;;;4971784;28;20043;-55
2022/04/30 11:58:42;;;;;;;5.10;1.73;;;21.40;54.00;;;;;;4972158;28;20043;-55
2022/04/30 12:01:24;;;;;;;3.70;1.60;;;21.50;54.10;;;;;;4977141;28;20490;-55
2022/04/30 12:04:03;;;;;;;4.65;1.70;;;21.50;54.20;;;;;;4988420;28;20045;-54
2022/04/30 12:06:29;;;;;;;3.05;1.70;;;21.50;54.30;;;;;;4984009;28;20057;-54
2022/04/30 12:08:55;;;;;;;3.28;1.65;;;21.50;54.30;;;;;;4983215;28;20046;-54
2022/04/30 12:11:20;;;;;;;3.95;1.63;;;21.50;54.30;;;;;;4983251;28;20050;-54
2022/04/30 12:14:02;;;;;;;3.67;1.88;;;21.50;54.30;;;;;;4982345;28;20394;-55
2022/04/30 12:16:41;;;;;;;3.47;1.73;;;21.50;54.30;;;;;;4983828;28;20042;-54
2022/04/30 12:25:12;;;;;;;4.13;1.92;;;21.50;54.40;;;;;;4982862;28;20117;-54
2022/04/30 12:27:38;;;;;;;3.28;1.60;;;21.40;54.50;;;;;;4983800;28;20034;-54
2022/04/30 12:30:12;;;;;;;4.82;1.60;;;21.40;54.50;;;;;;4982086;28;20042;-54
2022/04/30 12:32:47;;;;;;;4.60;2.05;;;21.40;54.60;;;;;;4980463;28;20376;-55
2022/04/30 12:35:14;;;;;;;2.92;1.25;;;21.40;54.60;;;;;;4981877;28;20112;-54
2022/04/30 12:37:40;;;;;;;4.32;1.58;;;21.40;54.70;;;;;;4983006;28;20042;-54
2022/04/30 12:40:06;;;;;;;3.63;1.40;;;21.30;54.70;;;;;;4993125;28;20461;-55
2022/04/30 12:42:32;;;;;;;4.40;1.77;;;21.40;54.80;;;;;;4976986;28;20545;-55
2022/04/30 12:44:57;;;;;;;2.42;1.48;;;21.40;54.70;;;;;;4975576;28;20043;-55
2022/04/30 12:47:23;;;;;;;3.28;1.85;;;21.30;54.60;;;;;;4975739;28;20050;-54
2022/04/30 12:49:48;;;;;;;3.60;1.63;;;21.30;54.30;;;;;;4976785;28;20049;-55
2022/04/30 12:52:14;;;;;;;3.58;1.60;;;21.30;54.20;;;;;;4976110;28;20042;-55
2022/04/30 12:54:40;;;;;;;4.15;1.50;;;21.30;54.20;;;;;;4976224;28;20042;-56
2022/04/30 12:57:07;;;;;;;2.60;1.38;;;21.30;54.00;;;;;;4976646;28;20096;-55
2022/04/30 12:59:33;;;;;;;3.08;1.60;;;21.30;53.90;;;;;;4978639;28;20118;-55
2022/04/30 13:01:59;;;;;;;2.85;1.50;;;21.20;53.90;;;;;;4985835;28;20046;-56
2022/04/30 13:04:25;;;;;;;2.75;1.48;;;21.20;53.90;;;;;;4986113;28;20101;-55
2022/04/30 13:06:50;;;;;;;5.32;1.48;;;21.20;54.00;;;;;;4995103;28;20046;-55
2022/04/30 13:14:45;;;;;;;4.75;1.60;;;21.20;54.20;;;;;;4994610;28;20050;-57
2022/04/30 13:17:11;;;;;;;4.85;1.50;;;21.20;54.20;;;;;;4995949;28;20490;-58
2022/04/30 13:19:39;;;;;;;2.85;1.50;;;21.20;54.30;;;;;;4995863;28;20046;-57
2022/04/30 13:22:05;;;;;;;4.60;1.70;;;21.20;54.40;;;;;;4994614;28;20038;-56
2022/04/30 13:24:30;;;;;;;7.45;1.55;;;21.20;54.70;;;;;;4995642;28;20474;-56
2022/04/30 13:26:57;;;;;;;3.28;1.63;;;21.20;54.80;;;;;;4994538;28;20041;-56
2022/04/30 13:29:22;;;;;;;3.22;1.77;;;21.20;54.70;;;;;;4994719;28;20402;-55
2022/04/30 13:31:48;;;;;;;6.82;2.25;;;21.10;54.60;;;;;;4995062;28;20509;-55